createdAt,value
2023-04-23T00:01:48.034Z,21.9
2023-04-23T00:07:42.538Z,23.4
2023-04-23T00:13:34.273Z,22.8
2023-04-23T00:19:25.943Z,22.3
2023-04-23T00:25:16.693Z,22.1
2023-04-23T00:31:08.075Z,21.9
2023-04-23T00:36:44.288Z,21.7
2023-04-23T00:42:35.146Z,21.6
2023-04-23T00:48:27.384Z,22.5
2023-04-23T00:54:19.136Z,23.5
2023-04-23T01:00:09.732Z,22.6
2023-04-23T01:06:02.797Z,22.1
2023-04-23T01:11:53.479Z,21.9
2023-04-23T01:17:29.925Z,21.7
2023-04-23T01:23:20.979Z,21.6
2023-04-23T01:29:12.514Z,21.4
2023-04-23T01:35:04.360Z,22.9
2023-04-23T01:40:55.724Z,23.3
2023-04-23T01:46:47.449Z,22.3
2023-04-23T01:52:41.718Z,21.9
2023-04-23T01:58:16.566Z,21.9
2023-04-23T02:04:09.511Z,21.8
2023-04-23T02:10:01.500Z,21.6
2023-04-23T02:15:53.025Z,21.6
2023-04-23T02:21:45.431Z,23.2
2023-04-23T02:27:37.199Z,22.7
2023-04-23T02:33:28.997Z,22.1
2023-04-23T02:39:20.431Z,21.6
2023-04-23T02:45:11.958Z,21.4
2023-04-23T02:51:03.327Z,21.3
2023-04-23T02:56:54.826Z,21.2
2023-04-23T03:02:47.383Z,21.1
2023-04-23T03:08:24.295Z,22.3
2023-04-23T03:14:16.004Z,23.3
2023-04-23T03:20:07.855Z,22.6
2023-04-23T03:25:58.770Z,22
2023-04-23T03:31:52.095Z,21.4
2023-04-23T03:37:44.078Z,21.3
2023-04-23T03:54:47.837Z,21
2023-04-23T04:00:23.513Z,23.3
2023-04-23T04:06:18.245Z,23.6
2023-04-23T04:12:09.894Z,22.6
2023-04-23T04:18:01.444Z,21.8
2023-04-23T04:23:54.365Z,21.4
2023-04-23T04:29:45.777Z,21.4
2023-04-23T04:35:37.293Z,21.1
2023-04-23T04:41:28.990Z,20.9
2023-04-23T04:47:20.929Z,20.8
2023-04-23T04:53:12.515Z,23.1
2023-04-23T04:59:03.589Z,23.6
2023-04-23T05:04:41.763Z,22.6
2023-04-23T05:10:34.559Z,22.1
2023-04-23T05:16:26.416Z,21.8
2023-04-23T05:22:18.177Z,21.6
2023-04-23T05:28:09.882Z,21.4
2023-04-23T05:34:07.424Z,22.5
2023-04-23T05:40:00.958Z,23.6
2023-04-23T05:45:52.649Z,22.6
2023-04-23T05:51:46.558Z,22.1
2023-04-23T05:57:38.369Z,21.8
2023-04-23T06:03:15.792Z,21.6
2023-04-23T06:09:12.870Z,21.6
2023-04-23T06:15:05.832Z,22.4
2023-04-23T06:20:57.394Z,23.9
2023-04-23T06:26:49.706Z,22.9
2023-04-23T06:32:41.007Z,22.6
2023-04-23T06:38:43.010Z,22.3
2023-04-23T06:44:34.801Z,21.9
2023-04-23T06:50:26.917Z,21.9
2023-04-23T06:56:18.844Z,22.8
2023-04-23T07:02:12.253Z,24.1
2023-04-23T07:08:04.966Z,22.9
2023-04-23T07:13:55.949Z,22.6
2023-04-23T07:19:47.828Z,22.3
2023-04-23T07:25:39.156Z,22.2
2023-04-23T07:31:29.727Z,22
2023-04-23T07:37:22.081Z,23.4
2023-04-23T07:43:16.162Z,23.9
2023-04-23T07:49:08.088Z,22.9
2023-04-23T07:54:44.808Z,22.6
2023-04-23T08:00:38.669Z,22.3
2023-04-23T08:06:33.513Z,22.3
2023-04-23T08:12:25.026Z,21.8
2023-04-23T08:18:17.368Z,23.8
2023-04-23T08:24:23.971Z,22.8
2023-04-23T08:30:00.932Z,21.8
2023-04-23T08:36:08.597Z,21.5
2023-04-23T08:41:56.316Z,21.4
2023-04-23T08:47:33.197Z,21.3
2023-04-23T08:53:08.993Z,21.2
2023-04-23T08:58:45.523Z,22.4
2023-04-23T09:04:37.921Z,22.6
2023-04-23T09:10:17.862Z,22.1
2023-04-23T09:16:09.054Z,21.9
2023-04-23T09:21:44.519Z,21.7
2023-04-23T09:27:36.316Z,21.5
2023-04-23T09:33:12.875Z,21.6
2023-04-23T09:39:04.377Z,21.5
2023-04-23T09:44:41.081Z,21.3
2023-04-23T09:50:17.917Z,21.2
2023-04-23T09:56:10.302Z,21
2023-04-23T10:02:25.622Z,20.9
2023-04-23T10:09:18.301Z,20.8
2023-04-23T10:15:57.846Z,20.6
2023-04-23T10:22:18.334Z,20.6
2023-04-23T10:28:26.629Z,20.5
2023-04-23T10:34:48.565Z,20.4
2023-04-23T10:40:56.656Z,20.3
2023-04-23T10:46:58.504Z,20.3
2023-04-23T10:53:20.617Z,20.2
2023-04-23T10:59:11.363Z,20.2
2023-04-23T11:05:07.583Z,20.1
2023-04-23T11:11:06.643Z,20
2023-04-23T11:17:00.665Z,20
2023-04-23T11:22:39.109Z,19.9
2023-04-23T11:28:30.171Z,19.9
2023-04-23T11:34:31.879Z,19.9
2023-04-23T11:40:23.551Z,19.8
2023-04-23T11:45:59.872Z,19.8
2023-04-23T11:51:06.658Z,19.8
2023-04-23T11:56:58.570Z,19.6
2023-04-23T12:02:51.478Z,19.7
2023-04-23T12:08:53.996Z,19.8
2023-04-23T12:14:29.414Z,19.7
2023-04-23T12:20:23.349Z,19.6
2023-04-23T12:26:15.039Z,19.6
2023-04-23T12:32:07.339Z,19.6
2023-04-23T12:37:59.181Z,19.6
2023-04-23T12:43:50.167Z,19.6
2023-04-23T12:49:42.748Z,19.6
2023-04-23T12:55:34.364Z,19.6
2023-04-23T13:01:26.329Z,19.6
2023-04-23T13:07:20.853Z,19.6
2023-04-23T13:12:57.163Z,19.6
2023-04-23T13:18:49.387Z,19.6
2023-04-23T13:24:43.813Z,19.6
2023-04-23T13:30:19.896Z,19.6
2023-04-23T13:35:56.397Z,19.6
2023-04-23T13:41:53.965Z,19.4
2023-04-23T13:47:54.127Z,19.5
2023-04-23T13:54:02.473Z,19.4
2023-04-23T13:59:51.229Z,19.4
2023-04-23T14:05:44.847Z,19.4
2023-04-23T14:11:22.080Z,19.4
2023-04-23T14:16:58.097Z,19.4
2023-04-23T14:22:38.430Z,19.4
2023-04-23T14:28:44.425Z,19.4
2023-04-23T14:34:35.991Z,19.3
2023-04-23T14:40:42.913Z,19.4
2023-04-23T14:46:46.597Z,19.4
2023-04-23T14:52:22.738Z,19.4
2023-04-23T14:58:14.160Z,19.4
2023-04-23T15:04:09.432Z,19.4
2023-04-23T15:10:01.129Z,19.4
2023-04-23T15:16:01.146Z,19.3
2023-04-23T15:21:56.260Z,19.4
2023-04-23T15:27:48.084Z,19.3
2023-04-23T15:33:24.835Z,19.3
2023-04-23T15:39:17.728Z,19.2
2023-04-23T15:45:08.820Z,19.2
2023-04-23T15:51:00.668Z,19.3
2023-04-23T15:56:53.148Z,19.3
2023-04-23T16:02:48.251Z,19.3
2023-04-23T16:08:57.104Z,19.4
2023-04-23T16:14:49.397Z,19.3
2023-04-23T16:20:42.302Z,19.3
2023-04-23T16:26:34.148Z,19.3
2023-04-23T16:32:46.436Z,19.3
2023-04-23T16:38:38.284Z,19.2
2023-04-23T16:44:29.745Z,19.2
2023-04-23T16:50:23.383Z,19.4
2023-04-23T16:56:16.269Z,19.3
2023-04-23T17:02:09.407Z,19.4
2023-04-23T17:08:04.375Z,19.4
2023-04-23T17:13:42.153Z,19.4
2023-04-23T17:19:19.942Z,19.2
2023-04-23T17:25:12.644Z,19.2
2023-04-23T17:31:05.529Z,19.2
2023-04-23T17:37:05.856Z,19.2
2023-04-23T17:42:59.108Z,19.3
2023-04-23T17:48:55.251Z,19.2
2023-04-23T17:54:51.126Z,19.3
2023-04-23T18:00:31.477Z,19.2
2023-04-23T18:06:29.351Z,19.2
2023-04-23T18:12:08.392Z,19.3
2023-04-23T18:17:46.649Z,19.3
2023-04-23T18:23:26.287Z,19.3
2023-04-23T18:28:48.484Z,19.3
2023-04-23T18:34:39.475Z,19.4
2023-04-23T18:41:11.497Z,19.4
2023-04-23T18:46:50.046Z,19.4
2023-04-23T18:52:28.395Z,19.4
2023-04-23T18:58:09.511Z,19.4
2023-04-23T19:04:29.968Z,19.4
2023-04-23T19:10:23.506Z,19.4
2023-04-23T19:15:45.885Z,19.4
2023-04-23T19:21:39.617Z,19.4
2023-04-23T19:27:17.869Z,19.4
2023-04-23T19:33:11.073Z,19.4
2023-04-23T19:38:48.986Z,19.4
2023-04-23T19:44:27.233Z,19.4
2023-04-23T19:50:05.396Z,19.4
2023-04-23T19:55:45.090Z,19.4
2023-04-23T20:01:38.879Z,19.4
2023-04-23T20:07:17.398Z,19.4
2023-04-23T20:12:54.358Z,19.4
2023-04-23T20:18:34.967Z,19.4
2023-04-23T20:23:57.301Z,19.4
2023-04-23T20:29:35.232Z,19.4
2023-04-23T20:35:12.156Z,19.4
2023-04-23T20:40:49.354Z,19.4
2023-04-23T20:46:25.093Z,19.4
2023-04-23T20:52:16.614Z,19.4
2023-04-23T20:57:52.674Z,19.4
2023-04-23T21:03:45.056Z,22.5
2023-04-23T21:09:38.038Z,24.9
2023-04-23T21:15:29.471Z,25.1
2023-04-23T21:21:21.699Z,23.3
2023-04-23T21:27:12.684Z,22.8
2023-04-23T21:32:51.643Z,23.4
2023-04-23T21:38:43.130Z,25
2023-04-23T21:44:34.546Z,24.2
2023-04-23T21:50:26.839Z,23.1
2023-04-23T21:56:18.508Z,22.8
2023-04-23T22:02:27.368Z,22.5
2023-04-23T22:08:38.407Z,24.2
2023-04-23T22:14:44.527Z,24.5
2023-04-23T22:20:49.675Z,23.3
2023-04-23T22:26:39.964Z,22.7
2023-04-23T22:32:15.702Z,22.6
2023-04-23T22:38:08.119Z,22.6
2023-04-23T22:43:45.888Z,24.4
2023-04-23T22:49:21.550Z,24.9
2023-04-23T22:54:44.348Z,23.4
2023-04-23T23:00:20.362Z,23.1
2023-04-23T23:05:41.671Z,22.9
2023-04-23T23:11:33.024Z,22.7
2023-04-23T23:17:08.870Z,23.6
2023-04-23T23:23:00.252Z,24.7
2023-04-23T23:28:51.345Z,23.5
2023-04-23T23:34:43.019Z,23.1
2023-04-23T23:40:33.924Z,22.8
2023-04-23T23:46:28.431Z,22.3
2023-04-23T23:52:05.230Z,22.6
2023-04-23T23:57:41.364Z,23.9
